DK-0006 weather

Rødekro Flyveplads
Rødekro, South Denmark, Denmark

Public forecast

Using degrees Celsius for public forecast. Weather courtesy of forecast.io.

METAR (pilot weather report)

Closest report is Skrydstrup Air Base, 8.6 nm (16.0 km) N. Retrieved 2019/09/22 23:20 UTC (26 minutes ago):

EKSP 222320Z 10013KT CAVOK 14/12 Q1012 RMK FEW200

TAF (pilot weather forecast)

Closest forecast is Skrydstrup Air Base, 8.6 nm (16.0 km) N. Retrieved 2019/09/22 21:30 UTC (2 hours ago):

TAF EKSP 222015Z 2221/2321 10012KT 9999 FEW200 PROB40 2302/2307 4000 BR BKN005 TEMPO 2309/2314 11015G25KT